sensor_id;sensor_type;location;lat;lon;timestamp;temperature;humidity
77218;DHT22;66214;51.302;17.068;2024-01-10T00:02:14;-8.91;76.42
77218;DHT22;66214;51.302;17.068;2024-01-10T00:04:46;-8.97;76.58
77218;DHT22;66214;51.302;17.068;2024-01-10T00:07:17;-9.04;76.73
77218;DHT22;66214;51.302;17.068;2024-01-10T00:09:45;-9.09;76.91
77218;DHT22;66214;51.302;17.068;2024-01-10T00:12:14;-9.12;76.97
77218;DHT22;66214;51.302;17.068;2024-01-10T00:14:42;-9.10;76.99
77218;DHT22;66214;51.302;17.068;2024-01-10T00:17:37;-9.07;76.87
77218;DHT22;66214;51.302;17.068;2024-01-10T00:20:08;-9.02;76.70
77218;DHT22;66214;51.302;17.068;2024-01-10T00:22:41;-9.01;76.56
77218;DHT22;66214;51.302;17.068;2024-01-10T00:25:13;-9.00;76.46
77218;DHT22;66214;51.302;17.068;2024-01-10T00:27:43;-8.98;76.41
77218;DHT22;66214;51.302;17.068;2024-01-10T00:30:13;-8.96;76.37
77218;DHT22;66214;51.302;17.068;2024-01-10T00:32:42;-8.94;76.28
77218;DHT22;66214;51.302;17.068;2024-01-10T00:35:13;-8.90;76.19
77218;DHT22;66214;51.302;17.068;2024-01-10T00:37:42;-8.86;76.03
77218;DHT22;66214;51.302;17.068;2024-01-10T00:40:12;-8.83;75.91
77218;DHT22;66214;51.302;17.068;2024-01-10T00:42:41;-8.79;75.78
77218;DHT22;66214;51.302;17.068;2024-01-10T00:45:16;-8.82;75.70
77218;DHT22;66214;51.302;17.068;2024-01-10T00:47:49;-8.84;75.75
77218;DHT22;66214;51.302;17.068;2024-01-10T00:50:19;-8.84;75.69
77218;DHT22;66214;51.302;17.068;2024-01-10T00:52:53;-8.84;75.63
77218;DHT22;66214;51.302;17.068;2024-01-10T00:55:23;-8.82;75.55
77218;DHT22;66214;51.302;17.068;2024-01-10T00:57:52;-8.80;75.45
77218;DHT22;66214;51.302;17.068;2024-01-10T01:00:28;-8.77;75.36
77218;DHT22;66214;51.302;17.068;2024-01-10T01:03:00;-8.74;75.19
77218;DHT22;66214;51.302;17.068;2024-01-10T01:05:31;-8.73;75.08
77218;DHT22;66214;51.302;17.068;2024-01-10T01:08:01;-8.76;75.00
77218;DHT22;66214;51.302;17.068;2024-01-10T01:10:34;-8.85;75.13
77218;DHT22;66214;51.302;17.068;2024-01-10T01:13:08;-8.86;75.24
77218;DHT22;66214;51.302;17.068;2024-01-10T01:15:36;-8.85;75.19
77218;DHT22;66214;51.302;17.068;2024-01-10T01:18:11;-8.84;75.12
77218;DHT22;66214;51.302;17.068;2024-01-10T01:20:41;-8.84;75.02
77218;DHT22;66214;51.302;17.068;2024-01-10T01:23:11;-8.84;74.97
77218;DHT22;66214;51.302;17.068;2024-01-10T01:25:39;-8.86;74.90
77218;DHT22;66214;51.302;17.068;2024-01-10T01:28:08;-8.88;74.90
77218;DHT22;66214;51.302;17.068;2024-01-10T01:30:38;-8.88;74.96
77218;DHT22;66214;51.302;17.068;2024-01-10T01:33:08;-8.90;74.93
77218;DHT22;66214;51.302;17.068;2024-01-10T01:35:40;-8.94;74.94
77218;DHT22;66214;51.302;17.068;2024-01-10T01:38:12;-9.02;75.15
77218;DHT22;66214;51.302;17.068;2024-01-10T01:40:41;-9.02;75.28
77218;DHT22;66214;51.302;17.068;2024-01-10T01:43:20;-9.01;75.23
77218;DHT22;66214;51.302;17.068;2024-01-10T01:45:54;-9.06;75.28
77218;DHT22;66214;51.302;17.068;2024-01-10T01:48:29;-9.13;75.48
77218;DHT22;66214;51.302;17.068;2024-01-10T01:51:00;-9.16;75.50
77218;DHT22;66214;51.302;17.068;2024-01-10T01:53:35;-9.15;75.53
77218;DHT22;66214;51.302;17.068;2024-01-10T01:56:08;-9.15;75.49
77218;DHT22;66214;51.302;17.068;2024-01-10T01:58:42;-9.16;75.42
77218;DHT22;66214;51.302;17.068;2024-01-10T02:01:11;-9.23;75.48
77218;DHT22;66214;51.302;17.068;2024-01-10T02:04:30;-9.31;75.75
77218;DHT22;66214;51.302;17.068;2024-01-10T02:06:59;-9.34;75.77
77218;DHT22;66214;51.302;17.068;2024-01-10T02:09:27;-9.33;75.79
77218;DHT22;66214;51.302;17.068;2024-01-10T02:11:57;-9.31;75.70
77218;DHT22;66214;51.302;17.068;2024-01-10T02:14:26;-9.35;75.75
77218;DHT22;66214;51.302;17.068;2024-01-10T02:16:56;-9.38;75.82
77218;DHT22;66214;51.302;17.068;2024-01-10T02:19:27;-9.45;76.02
77218;DHT22;66214;51.302;17.068;2024-01-10T02:21:57;-9.49;76.13
77218;DHT22;66214;51.302;17.068;2024-01-10T02:24:26;-9.53;76.26
77218;DHT22;66214;51.302;17.068;2024-01-10T02:26:57;-9.58;76.45
77218;DHT22;66214;51.302;17.068;2024-01-10T02:29:31;-9.66;76.63
77218;DHT22;66214;51.302;17.068;2024-01-10T02:31:59;-9.77;76.86
77218;DHT22;66214;51.302;17.068;2024-01-10T02:34:31;-9.84;77.15
77218;DHT22;66214;51.302;17.068;2024-01-10T02:37:00;-9.90;77.36
77218;DHT22;66214;51.302;17.068;2024-01-10T02:39:31;-9.92;77.59
77218;DHT22;66214;51.302;17.068;2024-01-10T02:42:00;-9.92;77.63
77218;DHT22;66214;51.302;17.068;2024-01-10T02:44:28;-9.89;77.63
77218;DHT22;66214;51.302;17.068;2024-01-10T02:46:57;-9.86;77.52
77218;DHT22;66214;51.302;17.068;2024-01-10T02:49:26;-9.85;77.37
77218;DHT22;66214;51.302;17.068;2024-01-10T02:51:54;-9.82;77.26
77218;DHT22;66214;51.302;17.068;2024-01-10T02:54:50;-9.82;77.20
77218;DHT22;66214;51.302;17.068;2024-01-10T02:57:19;-9.78;77.10
77218;DHT22;66214;51.302;17.068;2024-01-10T02:59:47;-9.73;76.97
77218;DHT22;66214;51.302;17.068;2024-01-10T03:02:16;-9.75;76.93
77218;DHT22;66214;51.302;17.068;2024-01-10T03:08:12;-9.71;77.46
77218;DHT22;66214;51.302;17.068;2024-01-10T03:10:41;-9.69;77.25
77218;DHT22;66214;51.302;17.068;2024-01-10T03:13:10;-9.79;77.11
77218;DHT22;66214;51.302;17.068;2024-01-10T03:15:38;-9.88;77.04
77218;DHT22;66214;51.302;17.068;2024-01-10T03:18:08;-9.94;77.00
77218;DHT22;66214;51.302;17.068;2024-01-10T03:20:38;-9.98;77.00
77218;DHT22;66214;51.302;17.068;2024-01-10T03:23:06;-9.99;77.02
77218;DHT22;66214;51.302;17.068;2024-01-10T03:25:34;-9.98;77.09
77218;DHT22;66214;51.302;17.068;2024-01-10T03:28:03;-9.95;77.04
77218;DHT22;66214;51.302;17.068;2024-01-10T03:30:32;-9.92;76.97
77218;DHT22;66214;51.302;17.068;2024-01-10T03:33:01;-9.89;76.86
77218;DHT22;66214;51.302;17.068;2024-01-10T03:35:29;-9.91;76.76
77218;DHT22;66214;51.302;17.068;2024-01-10T03:37:58;-9.99;76.83
77218;DHT22;66214;51.302;17.068;2024-01-10T03:40:27;-10.01;76.93
77218;DHT22;66214;51.302;17.068;2024-01-10T03:42:55;-9.97;76.95
77218;DHT22;66214;51.302;17.068;2024-01-10T03:45:25;-9.93;76.86
77218;DHT22;66214;51.302;17.068;2024-01-10T03:47:55;-9.89;76.76
77218;DHT22;66214;51.302;17.068;2024-01-10T03:50:23;-9.86;76.62
77218;DHT22;66214;51.302;17.068;2024-01-10T03:52:53;-9.85;76.51
77218;DHT22;66214;51.302;17.068;2024-01-10T03:55:24;-9.91;76.51
77218;DHT22;66214;51.302;17.068;2024-01-10T03:57:52;-10.01;76.69
77218;DHT22;66214;51.302;17.068;2024-01-10T04:00:21;-10.10;76.94
77218;DHT22;66214;51.302;17.068;2024-01-10T04:02:50;-10.11;77.09
77218;DHT22;66214;51.302;17.068;2024-01-10T04:05:18;-10.10;77.09
77218;DHT22;66214;51.302;17.068;2024-01-10T04:07:48;-10.13;77.15
77218;DHT22;66214;51.302;17.068;2024-01-10T04:10:17;-10.14;77.21
77218;DHT22;66214;51.302;17.068;2024-01-10T04:12:45;-10.10;77.17
77218;DHT22;66214;51.302;17.068;2024-01-10T04:15:14;-10.05;77.08
77218;DHT22;66214;51.302;17.068;2024-01-10T04:17:43;-10.00;76.87
77218;DHT22;66214;51.302;17.068;2024-01-10T04:20:11;-10.00;76.80
77218;DHT22;66214;51.302;17.068;2024-01-10T04:22:39;-10.02;76.82
77218;DHT22;66214;51.302;17.068;2024-01-10T04:25:08;-10.08;76.96
77218;DHT22;66214;51.302;17.068;2024-01-10T04:27:36;-10.14;77.17
77218;DHT22;66214;51.302;17.068;2024-01-10T04:30:05;-10.23;77.47
77218;DHT22;66214;51.302;17.068;2024-01-10T04:32:35;-10.29;77.78
77218;DHT22;66214;51.302;17.068;2024-01-10T04:35:03;-10.35;78.02
77218;DHT22;66214;51.302;17.068;2024-01-10T04:37:32;-10.39;78.30
77218;DHT22;66214;51.302;17.068;2024-01-10T04:40:00;-10.43;78.55
77218;DHT22;66214;51.302;17.068;2024-01-10T04:42:29;-10.44;78.57
77218;DHT22;66214;51.302;17.068;2024-01-10T04:44:58;-10.45;78.67
77218;DHT22;66214;51.302;17.068;2024-01-10T04:47:27;-10.46;78.77
77218;DHT22;66214;51.302;17.068;2024-01-10T04:49:55;-10.47;78.86
77218;DHT22;66214;51.302;17.068;2024-01-10T04:52:23;-10.49;79.00
77218;DHT22;66214;51.302;17.068;2024-01-10T04:54:53;-10.50;78.97
77218;DHT22;66214;51.302;17.068;2024-01-10T04:57:24;-10.48;78.89
77218;DHT22;66214;51.302;17.068;2024-01-10T04:59:52;-10.45;78.76
77218;DHT22;66214;51.302;17.068;2024-01-10T05:04:02;-10.39;78.68
77218;DHT22;66214;51.302;17.068;2024-01-10T05:06:30;-10.30;78.26
77218;DHT22;66214;51.302;17.068;2024-01-10T05:08:57;-10.24;77.88
77218;DHT22;66214;51.302;17.068;2024-01-10T05:11:25;-10.20;77.52
77218;DHT22;66214;51.302;17.068;2024-01-10T05:13:52;-10.21;77.16
77218;DHT22;66214;51.302;17.068;2024-01-10T05:16:19;-10.22;77.01
77218;DHT22;66214;51.302;17.068;2024-01-10T05:18:48;-10.23;77.08
77218;DHT22;66214;51.302;17.068;2024-01-10T05:21:17;-10.23;77.20
77218;DHT22;66214;51.302;17.068;2024-01-10T05:23:46;-10.21;77.23
77218;DHT22;66214;51.302;17.068;2024-01-10T05:26:13;-10.21;77.25
77218;DHT22;66214;51.302;17.068;2024-01-10T05:29:07;-10.20;77.30
77218;DHT22;66214;51.302;17.068;2024-01-10T05:31:36;-10.18;77.25
77218;DHT22;66214;51.302;17.068;2024-01-10T05:34:05;-10.16;77.16
77218;DHT22;66214;51.302;17.068;2024-01-10T05:36:33;-10.15;77.14
77218;DHT22;66214;51.302;17.068;2024-01-10T05:39:00;-10.17;77.20
77218;DHT22;66214;51.302;17.068;2024-01-10T05:41:30;-10.17;77.26
77218;DHT22;66214;51.302;17.068;2024-01-10T05:43:57;-10.18;77.30
77218;DHT22;66214;51.302;17.068;2024-01-10T05:46:31;-10.19;77.37
77218;DHT22;66214;51.302;17.068;2024-01-10T05:49:00;-10.20;77.48
77218;DHT22;66214;51.302;17.068;2024-01-10T05:51:29;-10.21;77.49
77218;DHT22;66214;51.302;17.068;2024-01-10T05:53:56;-10.17;77.44
77218;DHT22;66214;51.302;17.068;2024-01-10T05:56:24;-10.15;77.39
77218;DHT22;66214;51.302;17.068;2024-01-10T05:58:53;-10.13;77.38
77218;DHT22;66214;51.302;17.068;2024-01-10T06:01:22;-10.12;77.35
77218;DHT22;66214;51.302;17.068;2024-01-10T06:03:52;-10.09;77.30
77218;DHT22;66214;51.302;17.068;2024-01-10T06:06:19;-10.06;77.30
77218;DHT22;66214;51.302;17.068;2024-01-10T06:08:47;-10.03;77.41
77218;DHT22;66214;51.302;17.068;2024-01-10T06:11:15;-9.99;77.62
77218;DHT22;66214;51.302;17.068;2024-01-10T06:13:46;-9.92;77.70
77218;DHT22;66214;51.302;17.068;2024-01-10T06:16:15;-9.85;77.70
77218;DHT22;66214;51.302;17.068;2024-01-10T06:18:43;-9.82;77.69
77218;DHT22;66214;51.302;17.068;2024-01-10T06:21:13;-9.84;77.78
77218;DHT22;66214;51.302;17.068;2024-01-10T06:23:40;-9.83;77.85
77218;DHT22;66214;51.302;17.068;2024-01-10T06:29:35;-9.72;78.05
77218;DHT22;66214;51.302;17.068;2024-01-10T06:32:05;-9.71;77.75
77218;DHT22;66214;51.302;17.068;2024-01-10T06:34:34;-9.77;77.45
77218;DHT22;66214;51.302;17.068;2024-01-10T06:37:03;-9.87;77.26
77218;DHT22;66214;51.302;17.068;2024-01-10T06:39:32;-9.98;77.25
77218;DHT22;66214;51.302;17.068;2024-01-10T06:42:02;-10.04;77.20
77218;DHT22;66214;51.302;17.068;2024-01-10T06:44:39;-10.08;77.25
77218;DHT22;66214;51.302;17.068;2024-01-10T06:47:12;-10.11;77.38
77218;DHT22;66214;51.302;17.068;2024-01-10T06:49:42;-10.13;77.58
77218;DHT22;66214;51.302;17.068;2024-01-10T06:52:18;-10.12;77.68
77218;DHT22;66214;51.302;17.068;2024-01-10T06:54:46;-10.10;77.70
77218;DHT22;66214;51.302;17.068;2024-01-10T07:00:10;-10.00;77.59
77218;DHT22;66214;51.302;17.068;2024-01-10T07:03:05;-9.96;77.53
77218;DHT22;66214;51.302;17.068;2024-01-10T07:05:33;-9.90;77.41
77218;DHT22;66214;51.302;17.068;2024-01-10T07:08:04;-9.87;77.40
77218;DHT22;66214;51.302;17.068;2024-01-10T07:10:32;-9.84;77.37
77218;DHT22;66214;51.302;17.068;2024-01-10T07:16:37;-9.72;77.67
77218;DHT22;66214;51.302;17.068;2024-01-10T07:19:14;-9.69;77.48
77218;DHT22;66214;51.302;17.068;2024-01-10T07:21:44;-9.70;77.14
77218;DHT22;66214;51.302;17.068;2024-01-10T07:24:13;-9.75;76.96
77218;DHT22;66214;51.302;17.068;2024-01-10T07:26:45;-9.77;76.89
77218;DHT22;66214;51.302;17.068;2024-01-10T07:29:16;-9.80;76.89
77218;DHT22;66214;51.302;17.068;2024-01-10T07:31:49;-9.81;76.99
77218;DHT22;66214;51.302;17.068;2024-01-10T07:34:23;-9.82;77.18
77218;DHT22;66214;51.302;17.068;2024-01-10T07:36:52;-9.81;77.30
77218;DHT22;66214;51.302;17.068;2024-01-10T07:42:43;-9.69;77.64
77218;DHT22;66214;51.302;17.068;2024-01-10T07:45:18;-9.64;77.47
77218;DHT22;66214;51.302;17.068;2024-01-10T07:48:13;-9.57;77.16
77218;DHT22;66214;51.302;17.068;2024-01-10T07:50:42;-9.55;76.95
77218;DHT22;66214;51.302;17.068;2024-01-10T07:53:10;-9.53;76.82
77218;DHT22;66214;51.302;17.068;2024-01-10T07:55:40;-9.49;76.88
77218;DHT22;66214;51.302;17.068;2024-01-10T07:58:09;-9.44;76.99
77218;DHT22;66214;51.302;17.068;2024-01-10T08:03:43;-9.35;77.07
77218;DHT22;66214;51.302;17.068;2024-01-10T08:06:12;-9.30;76.71
77218;DHT22;66214;51.302;17.068;2024-01-10T08:08:43;-9.27;76.65
77218;DHT22;66214;51.302;17.068;2024-01-10T08:11:38;-9.21;76.42
77218;DHT22;66214;51.302;17.068;2024-01-10T08:14:08;-9.15;76.38
77218;DHT22;66214;51.302;17.068;2024-01-10T08:16:37;-9.09;76.48
77218;DHT22;66214;51.302;17.068;2024-01-10T08:19:11;-9.02;76.60
77218;DHT22;66214;51.302;17.068;2024-01-10T08:21:42;-8.93;76.67
77218;DHT22;66214;51.302;17.068;2024-01-10T08:24:12;-8.82;76.70
77218;DHT22;66214;51.302;17.068;2024-01-10T08:26:41;-8.72;76.74
77218;DHT22;66214;51.302;17.068;2024-01-10T08:29:34;-8.60;76.67
77218;DHT22;66214;51.302;17.068;2024-01-10T08:32:04;-8.47;76.53
77218;DHT22;66214;51.302;17.068;2024-01-10T08:34:34;-8.38;76.40
77218;DHT22;66214;51.302;17.068;2024-01-10T08:37:04;-8.27;76.34
77218;DHT22;66214;51.302;17.068;2024-01-10T08:39:35;-8.18;76.20
77218;DHT22;66214;51.302;17.068;2024-01-10T08:42:06;-8.12;76.13
77218;DHT22;66214;51.302;17.068;2024-01-10T08:44:38;-8.07;76.14
77218;DHT22;66214;51.302;17.068;2024-01-10T08:47:08;-7.97;76.25
77218;DHT22;66214;51.302;17.068;2024-01-10T08:49:39;-7.85;76.14
77218;DHT22;66214;51.302;17.068;2024-01-10T08:52:08;-7.79;75.85
77218;DHT22;66214;51.302;17.068;2024-01-10T08:54:36;-7.80;75.74
77218;DHT22;66214;51.302;17.068;2024-01-10T08:57:10;-7.78;75.80
77218;DHT22;66214;51.302;17.068;2024-01-10T08:59:41;-7.77;75.65
77218;DHT22;66214;51.302;17.068;2024-01-10T09:02:15;-7.81;75.56
77218;DHT22;66214;51.302;17.068;2024-01-10T09:04:48;-7.76;75.78
77218;DHT22;66214;51.302;17.068;2024-01-10T09:07:18;-7.73;75.72
77218;DHT22;66214;51.302;17.068;2024-01-10T09:13:03;-7.54;75.89
77218;DHT22;66214;51.302;17.068;2024-01-10T09:15:33;-7.44;75.68
77218;DHT22;66214;51.302;17.068;2024-01-10T09:18:05;-7.34;75.32
77218;DHT22;66214;51.302;17.068;2024-01-10T09:20:35;-7.23;75.08
77218;DHT22;66214;51.302;17.068;2024-01-10T09:23:05;-7.11;74.74
77218;DHT22;66214;51.302;17.068;2024-01-10T09:25:35;-7.02;74.26
77218;DHT22;66214;51.302;17.068;2024-01-10T09:28:08;-6.97;74.19
77218;DHT22;66214;51.302;17.068;2024-01-10T09:30:44;-6.93;74.08
77218;DHT22;66214;51.302;17.068;2024-01-10T09:33:12;-6.85;74.27
77218;DHT22;66214;51.302;17.068;2024-01-10T09:35:44;-6.76;74.30
77218;DHT22;66214;51.302;17.068;2024-01-10T09:38:37;-6.66;74.35
77218;DHT22;66214;51.302;17.068;2024-01-10T09:41:31;-6.58;74.12
77218;DHT22;66214;51.302;17.068;2024-01-10T09:44:07;-6.47;74.15
77218;DHT22;66214;51.302;17.068;2024-01-10T09:46:35;-6.34;74.33
77218;DHT22;66214;51.302;17.068;2024-01-10T09:49:07;-6.20;74.12
77218;DHT22;66214;51.302;17.068;2024-01-10T09:51:36;-6.09;73.71
77218;DHT22;66214;51.302;17.068;2024-01-10T09:54:06;-5.99;73.62
77218;DHT22;66214;51.302;17.068;2024-01-10T09:56:37;-5.84;73.67
77218;DHT22;66214;51.302;17.068;2024-01-10T09:59:08;-5.69;73.48
77218;DHT22;66214;51.302;17.068;2024-01-10T10:01:38;-5.59;73.08
77218;DHT22;66214;51.302;17.068;2024-01-10T10:04:07;-5.52;73.00
77218;DHT22;66214;51.302;17.068;2024-01-10T10:06:40;-5.38;72.95
77218;DHT22;66214;51.302;17.068;2024-01-10T10:09:12;-5.24;72.61
77218;DHT22;66214;51.302;17.068;2024-01-10T10:11:43;-5.15;72.15
77218;DHT22;66214;51.302;17.068;2024-01-10T10:14:16;-5.10;71.74
77218;DHT22;66214;51.302;17.068;2024-01-10T10:16:49;-5.03;71.40
77218;DHT22;66214;51.302;17.068;2024-01-10T10:19:23;-4.94;71.16
77218;DHT22;66214;51.302;17.068;2024-01-10T10:21:52;-4.74;71.22
77218;DHT22;66214;51.302;17.068;2024-01-10T10:24:37;-4.14;70.72
77218;DHT22;66214;51.302;17.068;2024-01-10T10:27:11;-3.00;69.53
77218;DHT22;66214;51.302;17.068;2024-01-10T10:29:42;-1.87;68.45
77218;DHT22;66214;51.302;17.068;2024-01-10T10:32:14;-0.81;67.26
77218;DHT22;66214;51.302;17.068;2024-01-10T10:38:15;1.36;66.17
77218;DHT22;66214;51.302;17.068;2024-01-10T10:40:47;2.07;65.10
77218;DHT22;66214;51.302;17.068;2024-01-10T10:43:19;2.65;63.15
77218;DHT22;66214;51.302;17.068;2024-01-10T10:45:50;3.14;63.45
77218;DHT22;66214;51.302;17.068;2024-01-10T10:48:23;3.55;63.26
77218;DHT22;66214;51.302;17.068;2024-01-10T10:51:05;3.95;61.91
77218;DHT22;66214;51.302;17.068;2024-01-10T10:54:01;4.40;61.67
77218;DHT22;66214;51.302;17.068;2024-01-10T10:56:32;4.79;61.77
77218;DHT22;66214;51.302;17.068;2024-01-10T10:59:04;5.23;60.21
77218;DHT22;66214;51.302;17.068;2024-01-10T11:03:45;5.66;59.61
77218;DHT22;66214;51.302;17.068;2024-01-10T11:06:40;5.95;58.55
77218;DHT22;66214;51.302;17.068;2024-01-10T11:09:10;6.19;57.37
77218;DHT22;66214;51.302;17.068;2024-01-10T11:14:47;5.55;56.49
77218;DHT22;66214;51.302;17.068;2024-01-10T11:23:44;1.85;57.64
77218;DHT22;66214;51.302;17.068;2024-01-10T11:26:18;1.19;57.72
77218;DHT22;66214;51.302;17.068;2024-01-10T11:28:48;0.63;57.88
77218;DHT22;66214;51.302;17.068;2024-01-10T11:34:22;-0.38;58.59
77218;DHT22;66214;51.302;17.068;2024-01-10T11:37:08;-0.73;58.47
77218;DHT22;66214;51.302;17.068;2024-01-10T11:39:42;-1.09;58.12
77218;DHT22;66214;51.302;17.068;2024-01-10T11:42:20;-1.35;58.33
77218;DHT22;66214;51.302;17.068;2024-01-10T11:44:51;-1.61;58.50
77218;DHT22;66214;51.302;17.068;2024-01-10T11:47:22;-1.83;58.63
77218;DHT22;66214;51.302;17.068;2024-01-10T11:49:54;-2.03;58.73
77218;DHT22;66214;51.302;17.068;2024-01-10T11:52:32;-2.19;58.94
77218;DHT22;66214;51.302;17.068;2024-01-10T11:55:04;-2.31;59.04
77218;DHT22;66214;51.302;17.068;2024-01-10T11:57:38;-2.44;59.14
77218;DHT22;66214;51.302;17.068;2024-01-10T12:00:08;-2.54;59.34
77218;DHT22;66214;51.302;17.068;2024-01-10T12:02:42;-2.65;59.44
77218;DHT22;66214;51.302;17.068;2024-01-10T12:05:15;-2.70;59.59
77218;DHT22;66214;51.302;17.068;2024-01-10T12:07:44;-2.71;59.61
77218;DHT22;66214;51.302;17.068;2024-01-10T12:10:20;-2.74;59.83
77218;DHT22;66214;51.302;17.068;2024-01-10T12:12:50;-2.76;59.87
77218;DHT22;66214;51.302;17.068;2024-01-10T12:15:19;-2.77;59.90
77218;DHT22;66214;51.302;17.068;2024-01-10T12:17:50;-2.80;59.88
77218;DHT22;66214;51.302;17.068;2024-01-10T12:20:20;-2.84;59.96
77218;DHT22;66214;51.302;17.068;2024-01-10T12:22:51;-2.89;60.17
77218;DHT22;66214;51.302;17.068;2024-01-10T12:25:24;-2.90;60.34
77218;DHT22;66214;51.302;17.068;2024-01-10T12:27:55;-2.92;60.44
77218;DHT22;66214;51.302;17.068;2024-01-10T12:30:49;-2.96;60.41
77218;DHT22;66214;51.302;17.068;2024-01-10T12:33:21;-3.01;60.36
77218;DHT22;66214;51.302;17.068;2024-01-10T12:36:05;-3.07;60.32
77218;DHT22;66214;51.302;17.068;2024-01-10T12:39:04;-3.11;60.51
77218;DHT22;66214;51.302;17.068;2024-01-10T12:41:39;-3.13;60.57
77218;DHT22;66214;51.302;17.068;2024-01-10T12:44:09;-3.14;60.62
77218;DHT22;66214;51.302;17.068;2024-01-10T12:46:49;-3.15;60.66
77218;DHT22;66214;51.302;17.068;2024-01-10T12:49:23;-3.15;60.89
77218;DHT22;66214;51.302;17.068;2024-01-10T12:51:56;-3.15;60.93
77218;DHT22;66214;51.302;17.068;2024-01-10T12:54:25;-3.14;60.88
77218;DHT22;66214;51.302;17.068;2024-01-10T12:56:53;-3.15;60.92
77218;DHT22;66214;51.302;17.068;2024-01-10T12:59:26;-3.15;61.09
77218;DHT22;66214;51.302;17.068;2024-01-10T13:01:54;-3.15;61.07
77218;DHT22;66214;51.302;17.068;2024-01-10T13:04:23;-3.16;61.25
77218;DHT22;66214;51.302;17.068;2024-01-10T13:06:52;-3.15;61.39
77218;DHT22;66214;51.302;17.068;2024-01-10T13:09:24;-3.14;61.45
77218;DHT22;66214;51.302;17.068;2024-01-10T13:11:53;-3.13;61.42
77218;DHT22;66214;51.302;17.068;2024-01-10T13:14:22;-3.13;61.48
77218;DHT22;66214;51.302;17.068;2024-01-10T13:16:51;-3.14;61.59
77218;DHT22;66214;51.302;17.068;2024-01-10T13:19:20;-3.13;61.54
77218;DHT22;66214;51.302;17.068;2024-01-10T13:21:48;-3.13;61.65
77218;DHT22;66214;51.302;17.068;2024-01-10T13:24:22;-3.12;61.71
77218;DHT22;66214;51.302;17.068;2024-01-10T13:26:51;-3.11;61.74
77218;DHT22;66214;51.302;17.068;2024-01-10T13:29:20;-3.10;61.68
77218;DHT22;66214;51.302;17.068;2024-01-10T13:31:49;-3.11;61.78
77218;DHT22;66214;51.302;17.068;2024-01-10T13:34:21;-3.14;61.87
77218;DHT22;66214;51.302;17.068;2024-01-10T13:36:50;-3.16;61.99
77218;DHT22;66214;51.302;17.068;2024-01-10T13:39:19;-3.21;62.18
77218;DHT22;66214;51.302;17.068;2024-01-10T13:42:12;-3.23;62.35
77218;DHT22;66214;51.302;17.068;2024-01-10T13:44:44;-3.25;62.33
77218;DHT22;66214;51.302;17.068;2024-01-10T13:47:14;-3.25;62.39
77218;DHT22;66214;51.302;17.068;2024-01-10T13:49:42;-3.29;62.55
77218;DHT22;66214;51.302;17.068;2024-01-10T13:52:13;-3.32;62.80
77218;DHT22;66214;51.302;17.068;2024-01-10T13:54:47;-3.36;63.00
77218;DHT22;66214;51.302;17.068;2024-01-10T13:57:41;-3.39;63.20
77218;DHT22;66214;51.302;17.068;2024-01-10T14:03:53;-3.52;63.48
77218;DHT22;66214;51.302;17.068;2024-01-10T14:06:23;-3.54;63.62
77218;DHT22;66214;51.302;17.068;2024-01-10T14:09:17;-3.59;63.72
77218;DHT22;66214;51.302;17.068;2024-01-10T14:11:50;-3.62;63.71
77218;DHT22;66214;51.302;17.068;2024-01-10T14:14:43;-3.66;63.85
77218;DHT22;66214;51.302;17.068;2024-01-10T14:17:17;-3.70;63.89
77218;DHT22;66214;51.302;17.068;2024-01-10T14:19:51;-3.73;64.05
77218;DHT22;66214;51.302;17.068;2024-01-10T14:22:22;-3.75;64.14
77218;DHT22;66214;51.302;17.068;2024-01-10T14:24:56;-3.80;64.17
77218;DHT22;66214;51.302;17.068;2024-01-10T14:27:28;-3.83;64.27
77218;DHT22;66214;51.302;17.068;2024-01-10T14:29:58;-3.85;64.34
77218;DHT22;66214;51.302;17.068;2024-01-10T14:32:27;-3.89;64.48
77218;DHT22;66214;51.302;17.068;2024-01-10T14:34:56;-3.94;64.51
77218;DHT22;66214;51.302;17.068;2024-01-10T14:37:27;-3.99;64.51
77218;DHT22;66214;51.302;17.068;2024-01-10T14:40:03;-4.03;64.70
77218;DHT22;66214;51.302;17.068;2024-01-10T14:42:38;-4.08;64.74
77218;DHT22;66214;51.302;17.068;2024-01-10T14:45:07;-4.13;64.95
77218;DHT22;66214;51.302;17.068;2024-01-10T14:47:38;-4.19;65.10
77218;DHT22;66214;51.302;17.068;2024-01-10T14:50:07;-4.24;65.26
77218;DHT22;66214;51.302;17.068;2024-01-10T14:53:01;-4.30;65.40
77218;DHT22;66214;51.302;17.068;2024-01-10T14:55:30;-4.35;65.43
77218;DHT22;66214;51.302;17.068;2024-01-10T14:57:58;-4.37;65.85
77218;DHT22;66214;51.302;17.068;2024-01-10T15:00:54;-4.38;66.33
77218;DHT22;66214;51.302;17.068;2024-01-10T15:03:25;-4.39;66.89
77218;DHT22;66214;51.302;17.068;2024-01-10T15:05:55;-4.41;67.33
77218;DHT22;66214;51.302;17.068;2024-01-10T15:08:26;-4.43;67.78
77218;DHT22;66214;51.302;17.068;2024-01-10T15:10:54;-4.44;68.11
77218;DHT22;66214;51.302;17.068;2024-01-10T15:13:23;-4.45;68.32
77218;DHT22;66214;51.302;17.068;2024-01-10T15:15:55;-4.46;68.50
77218;DHT22;66214;51.302;17.068;2024-01-10T15:18:24;-4.49;68.30
77218;DHT22;66214;51.302;17.068;2024-01-10T15:20:53;-4.53;68.04
77218;DHT22;66214;51.302;17.068;2024-01-10T15:23:22;-4.54;67.80
77218;DHT22;66214;51.302;17.068;2024-01-10T15:25:51;-4.60;67.63
77218;DHT22;66214;51.302;17.068;2024-01-10T15:28:19;-4.68;67.47
77218;DHT22;66214;51.302;17.068;2024-01-10T15:30:49;-4.78;67.48
77218;DHT22;66214;51.302;17.068;2024-01-10T15:33:19;-4.89;67.47
77218;DHT22;66214;51.302;17.068;2024-01-10T15:35:51;-4.99;67.48
77218;DHT22;66214;51.302;17.068;2024-01-10T15:38:24;-5.07;67.37
77218;DHT22;66214;51.302;17.068;2024-01-10T15:40:52;-5.20;67.22
77218;DHT22;66214;51.302;17.068;2024-01-10T15:43:22;-5.29;67.31
77218;DHT22;66214;51.302;17.068;2024-01-10T15:45:50;-5.39;67.28
77218;DHT22;66214;51.302;17.068;2024-01-10T15:48:23;-5.49;67.42
77218;DHT22;66214;51.302;17.068;2024-01-10T15:50:51;-5.59;67.62
77218;DHT22;66214;51.302;17.068;2024-01-10T15:53:20;-5.66;68.11
77218;DHT22;66214;51.302;17.068;2024-01-10T15:55:50;-5.72;68.77
77218;DHT22;66214;51.302;17.068;2024-01-10T15:58:19;-5.75;69.36
77218;DHT22;66214;51.302;17.068;2024-01-10T16:00:48;-5.76;69.85
77218;DHT22;66214;51.302;17.068;2024-01-10T16:03:18;-5.76;70.18
77218;DHT22;66214;51.302;17.068;2024-01-10T16:05:46;-5.76;70.44
77218;DHT22;66214;51.302;17.068;2024-01-10T16:08:17;-5.76;70.74
77218;DHT22;66214;51.302;17.068;2024-01-10T16:10:49;-5.75;70.76
77218;DHT22;66214;51.302;17.068;2024-01-10T16:13:19;-5.70;70.76
77218;DHT22;66214;51.302;17.068;2024-01-10T16:15:47;-5.64;70.70
77218;DHT22;66214;51.302;17.068;2024-01-10T16:18:16;-5.60;70.63
77218;DHT22;66214;51.302;17.068;2024-01-10T16:20:47;-5.59;70.58
77218;DHT22;66214;51.302;17.068;2024-01-10T16:23:16;-5.57;70.19
77218;DHT22;66214;51.302;17.068;2024-01-10T16:25:46;-5.61;69.76
77218;DHT22;66214;51.302;17.068;2024-01-10T16:28:14;-5.68;69.70
77218;DHT22;66214;51.302;17.068;2024-01-10T16:30:42;-5.76;69.42